createdAt,value
2018-12-16T00:00:01.289Z,79.57
2018-12-16T00:06:04.636Z,79.37
2018-12-16T00:12:07.986Z,78.67
2018-12-16T00:18:11.329Z,77.44
2018-12-16T00:24:14.671Z,77.78
2018-12-16T00:30:18.050Z,78.43
2018-12-16T00:36:21.415Z,76.81
2018-12-16T00:42:25.690Z,76.70
2018-12-16T00:48:29.088Z,76.57
2018-12-16T00:54:32.451Z,76.16
2018-12-16T01:00:35.800Z,76.29
2018-12-16T01:06:39.169Z,75.68
2018-12-16T01:12:42.522Z,75.80
2018-12-16T01:18:45.891Z,76.33
2018-12-16T01:25:05.409Z,75.80
2018-12-16T01:31:08.767Z,75.76
2018-12-16T01:37:12.109Z,76.29
2018-12-16T01:43:15.461Z,76.98
2018-12-16T01:49:18.875Z,76.84
2018-12-16T01:55:22.215Z,76.60
2018-12-16T02:01:25.655Z,76.56
2018-12-16T02:07:28.980Z,77.05
2018-12-16T02:13:32.347Z,77.59
2018-12-16T02:19:35.683Z,77.18
2018-12-16T02:25:39.017Z,78.04
2018-12-16T02:31:42.380Z,77.52
2018-12-16T02:37:45.722Z,77.32
2018-12-16T02:43:49.095Z,77.14
2018-12-16T02:49:52.438Z,77.39
2018-12-16T02:55:55.797Z,76.63
2018-12-16T03:01:59.143Z,76.77
2018-12-16T03:08:02.490Z,77.50
2018-12-16T03:14:05.852Z,77.49
2018-12-16T03:20:09.369Z,77.57
2018-12-16T03:26:12.732Z,77.37
2018-12-16T03:32:16.083Z,77.43
2018-12-16T03:38:19.454Z,77.15
2018-12-16T03:44:22.913Z,77.71
2018-12-16T03:50:26.265Z,77.08
2018-12-16T03:56:29.601Z,77.46
2018-12-16T04:02:32.934Z,78.10
2018-12-16T04:08:36.273Z,77.31
2018-12-16T04:14:41.302Z,77.59
2018-12-16T04:20:44.874Z,76.98
2018-12-16T04:26:48.276Z,77.84
2018-12-16T04:32:51.623Z,77.27
2018-12-16T04:38:54.959Z,76.16
2018-12-16T04:44:58.311Z,75.91
2018-12-16T04:51:01.667Z,76.15
2018-12-16T04:57:05.017Z,76.11
2018-12-16T05:03:08.365Z,75.87
2018-12-16T05:09:11.705Z,75.87
2018-12-16T05:15:15.064Z,75.92
2018-12-16T05:21:19.173Z,75.66
2018-12-16T05:27:22.526Z,75.08
2018-12-16T05:33:25.862Z,75.15
2018-12-16T05:39:29.203Z,74.57
2018-12-16T05:45:32.557Z,75.59
2018-12-16T05:51:35.920Z,75.34
2018-12-16T05:57:39.250Z,75.18
2018-12-16T06:03:42.623Z,76.25
2018-12-16T06:09:45.957Z,75.28
2018-12-16T06:15:49.312Z,75.64
2018-12-16T06:21:52.666Z,76.03
2018-12-16T06:27:56.011Z,75.82
2018-12-16T06:33:59.351Z,75.12
2018-12-16T06:40:02.702Z,75.94
2018-12-16T06:46:06.074Z,76.22
2018-12-16T06:52:09.430Z,76.46
2018-12-16T06:58:12.863Z,74.91
2018-12-16T07:04:16.236Z,76.10
2018-12-16T07:10:19.929Z,75.25
2018-12-16T07:16:23.255Z,75.44
2018-12-16T07:22:27.440Z,73.94
2018-12-16T07:28:30.796Z,74.58
2018-12-16T07:34:34.133Z,75.12
2018-12-16T07:40:37.455Z,75.43
2018-12-16T07:46:40.795Z,74.98
2018-12-16T07:52:45.262Z,74.65
2018-12-16T07:58:49.270Z,73.94
2018-12-16T08:04:52.625Z,73.41
2018-12-16T08:10:55.957Z,73.87
2018-12-16T08:16:59.305Z,73.24
2018-12-16T08:23:02.648Z,72.39
2018-12-16T08:29:05.991Z,72.62
2018-12-16T08:35:09.336Z,72.34
2018-12-16T08:41:12.656Z,71.88
2018-12-16T08:47:15.990Z,71.96
2018-12-16T08:53:19.327Z,71.63
2018-12-16T08:59:22.658Z,71.71
2018-12-16T09:05:26.008Z,72.40
2018-12-16T09:11:29.366Z,72.28
2018-12-16T09:17:32.692Z,70.80
2018-12-16T09:23:36.025Z,70.20
2018-12-16T09:29:39.461Z,69.95
2018-12-16T09:35:42.781Z,70.23
2018-12-16T09:41:46.107Z,68.81
2018-12-16T09:47:49.428Z,68.16
2018-12-16T09:53:52.835Z,67.61
2018-12-16T09:59:56.151Z,68.70
2018-12-16T10:05:59.562Z,67.02
2018-12-16T10:12:02.892Z,67.75
2018-12-16T10:18:06.229Z,67.64
2018-12-16T10:24:09.560Z,67.10
2018-12-16T10:30:12.888Z,67.90
2018-12-16T10:36:16.222Z,67.15
2018-12-16T10:42:19.589Z,67.85
2018-12-16T10:48:22.930Z,67.86
2018-12-16T10:54:26.276Z,68.74
2018-12-16T11:00:35.124Z,67.65
2018-12-16T11:06:38.451Z,69.14
2018-12-16T11:12:42.257Z,69.10
2018-12-16T11:18:45.592Z,69.74
2018-12-16T11:24:48.942Z,70.59
2018-12-16T11:30:52.272Z,69.58
2018-12-16T11:36:55.605Z,68.92
2018-12-16T11:42:58.922Z,68.84
2018-12-16T11:49:02.247Z,69.18
2018-12-16T11:55:12.514Z,69.70
2018-12-16T12:01:11.023Z,71.50
2018-12-16T12:07:14.348Z,71.20
2018-12-16T12:13:17.683Z,73.34
2018-12-16T12:19:21.087Z,75.94
2018-12-16T12:25:24.421Z,76.87
2018-12-16T12:31:27.764Z,76.96
2018-12-16T12:37:31.099Z,77.97
2018-12-16T12:43:34.419Z,77.76
2018-12-16T12:49:44.792Z,78.60
2018-12-16T12:55:43.167Z,77.90
2018-12-16T13:01:46.491Z,78.02
2018-12-16T13:07:49.815Z,79.04
2018-12-16T13:13:53.138Z,79.15
2018-12-16T13:19:56.467Z,79.34
2018-12-16T13:26:02.665Z,79.62
2018-12-16T13:32:05.998Z,80.36
2018-12-16T13:38:09.329Z,80.32
2018-12-16T13:44:12.667Z,80.34
2018-12-16T13:50:15.997Z,81.04
2018-12-16T13:56:19.324Z,80.95
2018-12-16T14:02:22.650Z,81.19
2018-12-16T14:08:25.988Z,82.15
2018-12-16T14:14:29.319Z,82.10
2018-12-16T14:20:32.639Z,82.04
2018-12-16T14:26:35.967Z,81.46
2018-12-16T14:32:39.294Z,82.25
2018-12-16T14:38:42.631Z,81.97
2018-12-16T14:44:45.959Z,83.06
2018-12-16T14:50:49.276Z,83.55
2018-12-16T14:56:52.603Z,83.28
2018-12-16T15:02:55.937Z,83.61
2018-12-16T15:08:59.267Z,83.55
2018-12-16T15:15:02.679Z,83.59
2018-12-16T15:21:06.006Z,83.44
2018-12-16T15:27:09.346Z,84.31
2018-12-16T15:33:12.688Z,84.03
2018-12-16T15:39:16.018Z,83.36
2018-12-16T15:45:19.337Z,83.57
2018-12-16T15:51:22.676Z,83.71
2018-12-16T15:57:26.019Z,84.30
2018-12-16T16:03:29.453Z,84.24
2018-12-16T16:09:32.781Z,83.47
2018-12-16T16:15:36.233Z,83.30
2018-12-16T16:21:39.559Z,83.11
2018-12-16T16:27:42.899Z,83.04
2018-12-16T16:33:46.239Z,83.05
2018-12-16T16:39:49.576Z,83.35
2018-12-16T16:45:52.966Z,82.77
2018-12-16T16:51:56.295Z,83.44
2018-12-16T16:57:59.625Z,82.79
2018-12-16T17:04:03.998Z,82.62
2018-12-16T17:10:07.703Z,82.52
2018-12-16T17:16:11.509Z,82.41
2018-12-16T17:22:15.204Z,82.46
2018-12-16T17:28:18.604Z,82.71
2018-12-16T17:34:22.053Z,81.99
2018-12-16T17:40:25.444Z,81.61
2018-12-16T17:46:28.772Z,81.66
2018-12-16T17:52:32.117Z,82.41
2018-12-16T17:58:35.440Z,81.37
2018-12-16T18:04:38.765Z,81.05
2018-12-16T18:10:42.093Z,81.91
2018-12-16T18:16:45.416Z,82.04
2018-12-16T18:22:48.784Z,81.22
2018-12-16T18:28:52.115Z,81.83
2018-12-16T18:34:55.513Z,81.17
2018-12-16T18:40:58.960Z,80.68
2018-12-16T18:47:02.318Z,80.45
2018-12-16T18:53:05.647Z,81.23
2018-12-16T18:59:09.009Z,81.47
2018-12-16T19:05:12.379Z,80.92
2018-12-16T19:11:15.800Z,81.27
2018-12-16T19:17:19.207Z,81.72
2018-12-16T19:23:22.543Z,81.61
2018-12-16T19:29:25.885Z,82.04
2018-12-16T19:35:29.231Z,81.26
2018-12-16T19:41:32.566Z,81.85
2018-12-16T19:47:35.905Z,82.01
2018-12-16T19:53:39.247Z,81.67
2018-12-16T19:59:42.592Z,80.94
2018-12-16T20:05:51.394Z,81.61
2018-12-16T20:11:54.764Z,82.04
2018-12-16T20:17:58.114Z,81.71
2018-12-16T20:24:01.449Z,82.05
2018-12-16T20:30:07.244Z,81.76
2018-12-16T20:36:10.605Z,81.19
2018-12-16T20:42:13.956Z,81.71
2018-12-16T20:48:17.284Z,81.55
2018-12-16T20:54:20.703Z,81.95
2018-12-16T21:00:24.144Z,81.69
2018-12-16T21:06:27.498Z,81.66
2018-12-16T21:12:36.484Z,81.48
2018-12-16T21:18:40.009Z,81.70
2018-12-16T21:24:43.335Z,81.81
2018-12-16T21:30:46.680Z,81.70
2018-12-16T21:36:50.027Z,81.43
2018-12-16T21:42:53.721Z,81.35
2018-12-16T21:48:57.044Z,82.01
2018-12-16T21:55:00.388Z,82.46
2018-12-16T22:01:03.739Z,82.83
2018-12-16T22:07:07.056Z,83.89
2018-12-16T22:13:10.386Z,83.27
2018-12-16T22:19:13.724Z,82.58
2018-12-16T22:25:17.069Z,82.96
2018-12-16T22:31:20.428Z,82.25
2018-12-16T22:37:23.796Z,82.66
2018-12-16T22:43:27.171Z,81.76
2018-12-16T22:49:30.751Z,81.90
2018-12-16T22:55:34.104Z,82.45
2018-12-16T23:01:37.447Z,82.11
2018-12-16T23:07:40.791Z,82.41
2018-12-16T23:13:44.131Z,82.93
2018-12-16T23:26:09.407Z,82.35
2018-12-16T23:32:12.827Z,83.09
2018-12-16T23:38:16.151Z,83.56
2018-12-16T23:44:19.593Z,83.82
2018-12-16T23:50:23.089Z,83.74
2018-12-16T23:56:26.424Z,83.17
